Aktuell sind 178 Gäste und keine Mitglieder online

[source: ADDS]
METAR
EDVE 161920Z 00000KT CAVOK 15/12 Q1019

TAF EDVE 161700Z 1618/1621 VRB03KT CAVOK PROB30 TEMPO 1620/1621 4000 BCFG EDDV 162350Z 08002KT 0600 R27R/0325V1100U R27L/0900VP2000N FG NSC 12/12 Q1019

TAF EDDV 162300Z 1700/1724 VRB03KT 0700 FG NSC TEMPO 1700/1708 0350 FG PROB30 TEMPO 1700/1708 0200 FG BKN001 BECMG 1707/1709 CAVOK PROB40 TEMPO 1722/1724 2000 BCFG ETHS 162320Z 01001KT 9999 MIFG SCT110 11/10 Q1019 BLU+

TAF AMD ETHS 162220Z 1620/1705 30005KT 9999 NSW FEW090 SCT130 CANCEL 2220 ETHC 162320Z 00000KT 9999 MIFG SCT100 12/11 Q1019 BLU+

TAF AMD ETHC 161620Z 1614/1623 VRB03KT 9999 NSW FEW080 BKN130 CANCEL 1630 EDVK 162220Z VRB01KT 9000 R27/0500V0750 MIFG NSC 08/08 Q1020

TAF AMD EDVK 162126Z 1621/1703 VRB02KT 8000 NSC BECMG 1622/1701 2500 BR TEMPO 1700/1703 0200 FG BKN001
TAF
TAF EDVE 161700Z 1618/1621 VRB03KT CAVOK PROB30 TEMPO 1620/1621 4000 BCFG

TAF EDDV 162300Z 1700/1724 VRB03KT 0700 FG NSC TEMPO 1700/1708 0350 FG PROB30 TEMPO 1700/1708 0200 FG BKN001 BECMG 1707/1709 CAVOK PROB40 TEMPO 1722/1724 2000 BCFG

TAF AMD ETHS 162220Z 1620/1705 30005KT 9999 NSW FEW090 SCT130 CANCEL 2220

TAF AMD ETHC 161620Z 1614/1623 VRB03KT 9999 NSW FEW080 BKN130 CANCEL 1630

TAF AMD EDVK 162126Z 1621/1703 VRB02KT 8000 NSC BECMG 1622/1701 2500 BR TEMPO 1700/1703 0200 FG BKN001

SR / SS: 05:46 / 16:19 UTC (EDVE 2018-10-17)
Willkommen im Verein Oliver! Viel Erfolg bei der Ausbildung! +++ Schon wieder ein neues Mitglied! Wilkommen Emmanuel und viel Spaß bei der Ausbildung! +++ Hallo Maximilian, herzlich willkommen in der FFG und viel Erfolg für deine Ausbildung! +++ Wir heißen unser neuestes Mitglied Jörg herzlich willkommen. Viel Spaß in der FFG! +++ Max hat sein erstes Solo absolviert! Herzlichen Glückwunsch! +++ Wir haben einen neuen Fluglehrer! Willkommen Ronald und viel Spaß mit deinen Schülern! +++ Unser Lehrer Thomas hat seine Fluglehrer-Anwärterschaft abgeschlossen und kann jetzt unbeschränkt ausbilden. Herzlichen Glückwunsch! +++ Willkommen Sebastian! Viel Spaß und Erfolg bei der Ausbildung! +++ Wir heißen unser neues Mitglied Horst herzlich willkommen. Viel Spaß in der FFG!

Neues Bild in 60 Sekunden

Letztes NOTAM EDVE
von 18.10.2018 0830Z bis 18.10.2018 1100Z
ILS GP RWY 26 NOT USEABLE, DISREGARD ALL SIGNALS, FALSE INDICATIONS POSS.

Letztes NOTAM EDCB
von 23.09.2018 1155Z bis 28.10.2018 1600Z
AERODROME HOURS OF OPS CHANGED. OPEN 0700-1600. ALL OTHER TIMES PPR.

Letztes NOTAM EDBC
von 16.10.2018 0923Z bis 15.01.2019 2359Z
MET SERVICES (AD WARNINGS, METAR, TAF) NOT AVBL.

Letztes NOTAM EDOV
von 18.10.2018 0500Z bis 19.10.2018 1900Z
RWY 08 THRESHOLD DISPLACED BY 950M TO THE EAST. RWY CLSD BTN TWY E AND 300M WEST OF TWY T1 DUE TO WIP.

Letztes NOTAM EDDV
von 22.10.2018 0930Z bis 23.10.2018 1300Z
DUE TO MAINT OF WRB DVOR/DME THE FLW CHANGES TO STAR OCCUR: AMEND WRB DVOR/DME TO READ WRB INT. POSITION REMAINS UNCHANGED. WRB 7P ADD [more]

Letztes NOTAM EDVK
von 22.10.2018 0930Z bis 23.10.2018 1300Z
DUE TO MAINT OF WRB DVOR/DME THE FLW CHANGES TO SID OCCUR: RWY 27: ELNAT 4N, EMBAD 2N AND WRB 9N TEMPO SUSPENDED. REF AD EDVK 5-7-1 AN [more]

          aerodata150     Radio38